sensor_id;sensor_type;location;lat;lon;timestamp;P1;durP1;ratioP1;P2;durP2;ratioP2
64085;SDS011;50333;47.436;21.390;2022-12-18T00:01:27;50.65;;;32.00;;
64085;SDS011;50333;47.436;21.390;2022-12-18T00:04:06;44.40;;;25.67;;
64085;SDS011;50333;47.436;21.390;2022-12-18T00:06:35;50.03;;;31.92;;
64085;SDS011;50333;47.436;21.390;2022-12-18T00:09:03;46.33;;;25.48;;
64085;SDS011;50333;47.436;21.390;2022-12-18T00:11:31;49.45;;;31.00;;
64085;SDS011;50333;47.436;21.390;2022-12-18T00:13:59;47.92;;;27.95;;
64085;SDS011;50333;47.436;21.390;2022-12-18T00:16:27;49.17;;;30.30;;
64085;SDS011;50333;47.436;21.390;2022-12-18T00:18:58;44.78;;;26.00;;
64085;SDS011;50333;47.436;21.390;2022-12-18T00:21:27;50.15;;;31.37;;
64085;SDS011;50333;47.436;21.390;2022-12-18T00:23:56;49.25;;;31.25;;
64085;SDS011;50333;47.436;21.390;2022-12-18T00:26:25;49.72;;;28.10;;
64085;SDS011;50333;47.436;21.390;2022-12-18T00:28:57;51.23;;;31.57;;
64085;SDS011;50333;47.436;21.390;2022-12-18T00:33:54;42.35;;;23.67;;
64085;SDS011;50333;47.436;21.390;2022-12-18T00:36:24;43.28;;;25.67;;
64085;SDS011;50333;47.436;21.390;2022-12-18T00:38:54;46.07;;;25.80;;
64085;SDS011;50333;47.436;21.390;2022-12-18T00:41:23;47.60;;;30.80;;
64085;SDS011;50333;47.436;21.390;2022-12-18T00:44:11;49.85;;;26.70;;
64085;SDS011;50333;47.436;21.390;2022-12-18T00:46:41;50.50;;;32.50;;
64085;SDS011;50333;47.436;21.390;2022-12-18T00:49:13;41.97;;;24.65;;
64085;SDS011;50333;47.436;21.390;2022-12-18T00:51:41;46.67;;;28.38;;
64085;SDS011;50333;47.436;21.390;2022-12-18T00:54:11;49.75;;;30.55;;
64085;SDS011;50333;47.436;21.390;2022-12-18T00:56:38;45.47;;;26.08;;
64085;SDS011;50333;47.436;21.390;2022-12-18T00:59:15;48.47;;;30.90;;
64085;SDS011;50333;47.436;21.390;2022-12-18T01:01:44;46.13;;;26.83;;
64085;SDS011;50333;47.436;21.390;2022-12-18T01:04:12;49.75;;;32.17;;
64085;SDS011;50333;47.436;21.390;2022-12-18T01:06:44;41.05;;;24.52;;
64085;SDS011;50333;47.436;21.390;2022-12-18T01:09:12;46.05;;;28.40;;
64085;SDS011;50333;47.436;21.390;2022-12-18T01:11:40;51.75;;;30.73;;
64085;SDS011;50333;47.436;21.390;2022-12-18T01:14:09;41.88;;;24.55;;
64085;SDS011;50333;47.436;21.390;2022-12-18T01:16:37;46.97;;;29.50;;
64085;SDS011;50333;47.436;21.390;2022-12-18T01:19:05;43.72;;;25.20;;
64085;SDS011;50333;47.436;21.390;2022-12-18T01:21:33;44.92;;;27.27;;
64085;SDS011;50333;47.436;21.390;2022-12-18T01:24:03;50.35;;;30.20;;
64085;SDS011;50333;47.436;21.390;2022-12-18T01:26:31;45.55;;;26.67;;
64085;SDS011;50333;47.436;21.390;2022-12-18T01:28:59;50.22;;;29.10;;
64085;SDS011;50333;47.436;21.390;2022-12-18T01:31:31;48.83;;;27.45;;
64085;SDS011;50333;47.436;21.390;2022-12-18T01:34:02;57.08;;;34.22;;
64085;SDS011;50333;47.436;21.390;2022-12-18T01:36:32;51.40;;;30.67;;
64085;SDS011;50333;47.436;21.390;2022-12-18T01:39:03;44.40;;;25.50;;
64085;SDS011;50333;47.436;21.390;2022-12-18T01:41:34;56.03;;;32.85;;
64085;SDS011;50333;47.436;21.390;2022-12-18T01:47:30;48.33;;;26.52;;
64085;SDS011;50333;47.436;21.390;2022-12-18T01:50:13;58.47;;;32.97;;
64085;SDS011;50333;47.436;21.390;2022-12-18T01:52:47;59.13;;;34.85;;
64085;SDS011;50333;47.436;21.390;2022-12-18T01:55:19;71.30;;;36.17;;
64085;SDS011;50333;47.436;21.390;2022-12-18T01:57:51;68.95;;;40.20;;
64085;SDS011;50333;47.436;21.390;2022-12-18T02:00:22;64.70;;;33.15;;
64085;SDS011;50333;47.436;21.390;2022-12-18T02:02:51;70.72;;;43.08;;
64085;SDS011;50333;47.436;21.390;2022-12-18T02:05:26;65.05;;;35.58;;
64085;SDS011;50333;47.436;21.390;2022-12-18T02:13:43;47.17;;;27.45;;
64085;SDS011;50333;47.436;21.390;2022-12-18T02:16:21;49.42;;;28.85;;
64085;SDS011;50333;47.436;21.390;2022-12-18T02:18:58;44.85;;;26.55;;
64085;SDS011;50333;47.436;21.390;2022-12-18T02:27:02;45.75;;;26.62;;
64085;SDS011;50333;47.436;21.390;2022-12-18T02:29:35;44.22;;;24.35;;
64085;SDS011;50333;47.436;21.390;2022-12-18T02:32:12;46.42;;;28.77;;
64085;SDS011;50333;47.436;21.390;2022-12-18T02:34:44;42.72;;;27.33;;
64085;SDS011;50333;47.436;21.390;2022-12-18T02:37:14;46.88;;;27.27;;
64085;SDS011;50333;47.436;21.390;2022-12-18T02:39:47;41.25;;;24.63;;
64085;SDS011;50333;47.436;21.390;2022-12-18T02:42:16;44.50;;;25.62;;
64085;SDS011;50333;47.436;21.390;2022-12-18T02:44:46;42.78;;;24.58;;
64085;SDS011;50333;47.436;21.390;2022-12-18T02:47:17;47.53;;;29.00;;
64085;SDS011;50333;47.436;21.390;2022-12-18T02:50:03;42.97;;;27.70;;
64085;SDS011;50333;47.436;21.390;2022-12-18T03:01:22;47.75;;;28.42;;
64085;SDS011;50333;47.436;21.390;2022-12-18T03:06:57;42.17;;;23.20;;
64085;SDS011;50333;47.436;21.390;2022-12-18T03:09:36;45.38;;;26.02;;
64085;SDS011;50333;47.436;21.390;2022-12-18T03:12:30;39.25;;;22.67;;
64085;SDS011;50333;47.436;21.390;2022-12-18T03:15:03;42.97;;;24.65;;
64085;SDS011;50333;47.436;21.390;2022-12-18T03:17:50;41.50;;;22.00;;
64085;SDS011;50333;47.436;21.390;2022-12-18T03:20:26;47.08;;;27.10;;
64085;SDS011;50333;47.436;21.390;2022-12-18T03:25:29;62.28;;;28.75;;
64085;SDS011;50333;47.436;21.390;2022-12-18T03:27:58;61.63;;;31.50;;
64085;SDS011;50333;47.436;21.390;2022-12-18T03:30:29;104.25;;;46.55;;
64085;SDS011;50333;47.436;21.390;2022-12-18T03:35:41;90.38;;;47.42;;
64085;SDS011;50333;47.436;21.390;2022-12-18T03:38:10;81.80;;;41.05;;
64085;SDS011;50333;47.436;21.390;2022-12-18T03:46:29;51.10;;;27.45;;
64085;SDS011;50333;47.436;21.390;2022-12-18T03:54:09;47.28;;;27.35;;
64085;SDS011;50333;47.436;21.390;2022-12-18T03:56:40;46.60;;;25.42;;
64085;SDS011;50333;47.436;21.390;2022-12-18T03:59:12;48.70;;;28.10;;
64085;SDS011;50333;47.436;21.390;2022-12-18T04:01:45;47.35;;;25.25;;
64085;SDS011;50333;47.436;21.390;2022-12-18T04:04:15;51.60;;;27.40;;
64085;SDS011;50333;47.436;21.390;2022-12-18T04:06:46;56.58;;;32.25;;
64085;SDS011;50333;47.436;21.390;2022-12-18T04:09:17;54.17;;;29.93;;
64085;SDS011;50333;47.436;21.390;2022-12-18T04:11:45;52.78;;;29.92;;
64085;SDS011;50333;47.436;21.390;2022-12-18T04:14:14;50.08;;;28.40;;
64085;SDS011;50333;47.436;21.390;2022-12-18T04:16:45;49.85;;;28.12;;
64085;SDS011;50333;47.436;21.390;2022-12-18T04:19:13;50.75;;;27.75;;
64085;SDS011;50333;47.436;21.390;2022-12-18T04:21:42;44.85;;;27.42;;
64085;SDS011;50333;47.436;21.390;2022-12-18T04:24:10;42.55;;;24.83;;
64085;SDS011;50333;47.436;21.390;2022-12-18T04:26:38;51.63;;;27.25;;
64085;SDS011;50333;47.436;21.390;2022-12-18T04:29:08;45.85;;;28.60;;
64085;SDS011;50333;47.436;21.390;2022-12-18T04:31:36;48.50;;;27.25;;
64085;SDS011;50333;47.436;21.390;2022-12-18T04:34:04;40.83;;;25.52;;
64085;SDS011;50333;47.436;21.390;2022-12-18T04:36:33;45.50;;;25.90;;
64085;SDS011;50333;47.436;21.390;2022-12-18T04:39:02;46.17;;;24.67;;
64085;SDS011;50333;47.436;21.390;2022-12-18T04:41:30;47.13;;;24.70;;
64085;SDS011;50333;47.436;21.390;2022-12-18T04:43:57;49.50;;;27.58;;
64085;SDS011;50333;47.436;21.390;2022-12-18T04:46:25;52.15;;;31.35;;
64085;SDS011;50333;47.436;21.390;2022-12-18T04:48:53;49.08;;;26.67;;
64085;SDS011;50333;47.436;21.390;2022-12-18T04:51:20;43.05;;;24.10;;
64085;SDS011;50333;47.436;21.390;2022-12-18T04:53:53;45.58;;;24.58;;
64085;SDS011;50333;47.436;21.390;2022-12-18T04:56:21;48.40;;;28.33;;
64085;SDS011;50333;47.436;21.390;2022-12-18T04:58:49;45.28;;;24.25;;
64085;SDS011;50333;47.436;21.390;2022-12-18T05:01:17;45.15;;;25.58;;
64085;SDS011;50333;47.436;21.390;2022-12-18T05:03:45;40.17;;;23.23;;
64085;SDS011;50333;47.436;21.390;2022-12-18T05:06:13;44.15;;;23.73;;
64085;SDS011;50333;47.436;21.390;2022-12-18T05:08:41;40.85;;;24.12;;
64085;SDS011;50333;47.436;21.390;2022-12-18T05:11:10;44.55;;;26.48;;
64085;SDS011;50333;47.436;21.390;2022-12-18T05:13:41;41.42;;;23.42;;
64085;SDS011;50333;47.436;21.390;2022-12-18T05:16:11;44.03;;;27.42;;
64085;SDS011;50333;47.436;21.390;2022-12-18T05:18:40;41.40;;;23.48;;
64085;SDS011;50333;47.436;21.390;2022-12-18T05:21:08;40.78;;;23.02;;
64085;SDS011;50333;47.436;21.390;2022-12-18T05:23:36;44.22;;;22.50;;
64085;SDS011;50333;47.436;21.390;2022-12-18T05:26:05;54.58;;;28.65;;
64085;SDS011;50333;47.436;21.390;2022-12-18T05:28:34;45.35;;;24.95;;
64085;SDS011;50333;47.436;21.390;2022-12-18T05:31:03;52.50;;;26.25;;
64085;SDS011;50333;47.436;21.390;2022-12-18T05:33:33;51.85;;;26.87;;
64085;SDS011;50333;47.436;21.390;2022-12-18T05:36:02;47.20;;;26.25;;
64085;SDS011;50333;47.436;21.390;2022-12-18T05:38:33;43.53;;;24.55;;
64085;SDS011;50333;47.436;21.390;2022-12-18T05:41:03;42.50;;;24.40;;
64085;SDS011;50333;47.436;21.390;2022-12-18T05:43:33;47.15;;;25.77;;
64085;SDS011;50333;47.436;21.390;2022-12-18T05:46:09;48.50;;;26.15;;
64085;SDS011;50333;47.436;21.390;2022-12-18T05:48:41;48.38;;;26.35;;
64085;SDS011;50333;47.436;21.390;2022-12-18T05:51:13;52.10;;;28.73;;
64085;SDS011;50333;47.436;21.390;2022-12-18T05:53:42;54.60;;;28.90;;
64085;SDS011;50333;47.436;21.390;2022-12-18T05:56:12;56.65;;;30.73;;
64085;SDS011;50333;47.436;21.390;2022-12-18T05:58:41;56.30;;;31.00;;
64085;SDS011;50333;47.436;21.390;2022-12-18T06:01:11;63.35;;;32.42;;
64085;SDS011;50333;47.436;21.390;2022-12-18T06:03:44;63.53;;;32.50;;
64085;SDS011;50333;47.436;21.390;2022-12-18T06:06:14;64.93;;;32.42;;
64085;SDS011;50333;47.436;21.390;2022-12-18T06:08:41;61.78;;;33.67;;
64085;SDS011;50333;47.436;21.390;2022-12-18T06:11:15;60.05;;;32.67;;
64085;SDS011;50333;47.436;21.390;2022-12-18T06:13:45;86.82;;;46.00;;
64085;SDS011;50333;47.436;21.390;2022-12-18T06:16:14;114.62;;;53.38;;
64085;SDS011;50333;47.436;21.390;2022-12-18T06:18:41;94.72;;;44.80;;
64085;SDS011;50333;47.436;21.390;2022-12-18T06:21:09;67.40;;;33.50;;
64085;SDS011;50333;47.436;21.390;2022-12-18T06:23:37;71.03;;;36.35;;
64085;SDS011;50333;47.436;21.390;2022-12-18T06:26:06;69.30;;;34.05;;
64085;SDS011;50333;47.436;21.390;2022-12-18T06:28:36;51.45;;;28.27;;
64085;SDS011;50333;47.436;21.390;2022-12-18T06:31:05;51.67;;;28.52;;
64085;SDS011;50333;47.436;21.390;2022-12-18T06:33:33;60.90;;;33.53;;
64085;SDS011;50333;47.436;21.390;2022-12-18T06:36:11;58.60;;;32.75;;
64085;SDS011;50333;47.436;21.390;2022-12-18T06:38:41;48.30;;;27.40;;
64085;SDS011;50333;47.436;21.390;2022-12-18T06:41:11;57.65;;;33.92;;
64085;SDS011;50333;47.436;21.390;2022-12-18T06:43:41;54.50;;;25.60;;
64085;SDS011;50333;47.436;21.390;2022-12-18T06:46:10;46.78;;;27.17;;
64085;SDS011;50333;47.436;21.390;2022-12-18T06:48:38;46.65;;;27.35;;
64085;SDS011;50333;47.436;21.390;2022-12-18T06:51:06;50.95;;;32.15;;
64085;SDS011;50333;47.436;21.390;2022-12-18T06:53:34;45.55;;;27.55;;
64085;SDS011;50333;47.436;21.390;2022-12-18T06:56:02;55.83;;;32.33;;
64085;SDS011;50333;47.436;21.390;2022-12-18T06:58:37;50.60;;;29.10;;
64085;SDS011;50333;47.436;21.390;2022-12-18T07:01:07;51.50;;;29.23;;
64085;SDS011;50333;47.436;21.390;2022-12-18T07:03:37;44.92;;;26.42;;
64085;SDS011;50333;47.436;21.390;2022-12-18T07:06:11;49.33;;;29.02;;
64085;SDS011;50333;47.436;21.390;2022-12-18T07:08:42;62.97;;;34.00;;
64085;SDS011;50333;47.436;21.390;2022-12-18T07:11:10;53.70;;;29.02;;
64085;SDS011;50333;47.436;21.390;2022-12-18T07:13:38;55.47;;;27.50;;
64085;SDS011;50333;47.436;21.390;2022-12-18T07:16:17;57.62;;;31.55;;
64085;SDS011;50333;47.436;21.390;2022-12-18T07:18:52;49.70;;;28.35;;
64085;SDS011;50333;47.436;21.390;2022-12-18T07:21:22;52.97;;;32.00;;
64085;SDS011;50333;47.436;21.390;2022-12-18T07:23:51;50.58;;;28.85;;
64085;SDS011;50333;47.436;21.390;2022-12-18T07:26:20;50.72;;;27.35;;
64085;SDS011;50333;47.436;21.390;2022-12-18T07:28:49;51.60;;;27.55;;
64085;SDS011;50333;47.436;21.390;2022-12-18T07:31:18;53.60;;;28.10;;
64085;SDS011;50333;47.436;21.390;2022-12-18T07:33:48;44.20;;;25.77;;
64085;SDS011;50333;47.436;21.390;2022-12-18T07:36:17;48.05;;;26.25;;
64085;SDS011;50333;47.436;21.390;2022-12-18T07:38:48;48.38;;;26.98;;
64085;SDS011;50333;47.436;21.390;2022-12-18T07:41:17;46.10;;;24.70;;
64085;SDS011;50333;47.436;21.390;2022-12-18T07:43:45;42.90;;;22.95;;
64085;SDS011;50333;47.436;21.390;2022-12-18T07:46:14;40.17;;;22.60;;
64085;SDS011;50333;47.436;21.390;2022-12-18T07:48:43;44.88;;;22.75;;
64085;SDS011;50333;47.436;21.390;2022-12-18T07:51:15;47.47;;;24.92;;
64085;SDS011;50333;47.436;21.390;2022-12-18T07:53:45;43.28;;;23.55;;
64085;SDS011;50333;47.436;21.390;2022-12-18T07:56:18;47.83;;;23.30;;
64085;SDS011;50333;47.436;21.390;2022-12-18T07:58:57;48.08;;;23.33;;
64085;SDS011;50333;47.436;21.390;2022-12-18T08:01:26;49.15;;;25.42;;
64085;SDS011;50333;47.436;21.390;2022-12-18T08:03:55;55.45;;;23.75;;
64085;SDS011;50333;47.436;21.390;2022-12-18T08:06:23;64.62;;;31.37;;
64085;SDS011;50333;47.436;21.390;2022-12-18T08:08:54;50.40;;;23.20;;
64085;SDS011;50333;47.436;21.390;2022-12-18T08:11:23;58.22;;;24.55;;
64085;SDS011;50333;47.436;21.390;2022-12-18T08:13:52;48.38;;;22.58;;
64085;SDS011;50333;47.436;21.390;2022-12-18T08:16:21;41.72;;;20.05;;
64085;SDS011;50333;47.436;21.390;2022-12-18T08:18:51;44.70;;;22.27;;
64085;SDS011;50333;47.436;21.390;2022-12-18T08:21:21;51.90;;;22.10;;
64085;SDS011;50333;47.436;21.390;2022-12-18T08:23:51;56.50;;;23.02;;
64085;SDS011;50333;47.436;21.390;2022-12-18T08:26:21;46.75;;;21.20;;
64085;SDS011;50333;47.436;21.390;2022-12-18T08:28:49;47.25;;;21.52;;
64085;SDS011;50333;47.436;21.390;2022-12-18T08:31:18;48.25;;;20.27;;
64085;SDS011;50333;47.436;21.390;2022-12-18T08:33:50;52.38;;;24.35;;
64085;SDS011;50333;47.436;21.390;2022-12-18T08:36:20;54.00;;;22.70;;
64085;SDS011;50333;47.436;21.390;2022-12-18T08:38:48;44.47;;;21.25;;
64085;SDS011;50333;47.436;21.390;2022-12-18T08:41:16;55.88;;;23.42;;
64085;SDS011;50333;47.436;21.390;2022-12-18T08:43:45;55.17;;;23.60;;
64085;SDS011;50333;47.436;21.390;2022-12-18T08:46:42;49.97;;;21.65;;
64085;SDS011;50333;47.436;21.390;2022-12-18T08:49:12;49.78;;;22.25;;
64085;SDS011;50333;47.436;21.390;2022-12-18T08:51:39;55.72;;;26.50;;
64085;SDS011;50333;47.436;21.390;2022-12-18T08:54:12;51.00;;;23.30;;
64085;SDS011;50333;47.436;21.390;2022-12-18T08:56:41;53.70;;;26.00;;
64085;SDS011;50333;47.436;21.390;2022-12-18T08:59:08;53.70;;;23.73;;
64085;SDS011;50333;47.436;21.390;2022-12-18T09:01:45;58.38;;;24.25;;
64085;SDS011;50333;47.436;21.390;2022-12-18T09:04:13;54.42;;;24.05;;
64085;SDS011;50333;47.436;21.390;2022-12-18T09:06:41;52.25;;;24.87;;
64085;SDS011;50333;47.436;21.390;2022-12-18T09:09:09;59.63;;;26.42;;
64085;SDS011;50333;47.436;21.390;2022-12-18T09:11:37;56.45;;;23.52;;
64085;SDS011;50333;47.436;21.390;2022-12-18T09:14:05;62.15;;;24.65;;
64085;SDS011;50333;47.436;21.390;2022-12-18T09:16:33;55.38;;;25.23;;
64085;SDS011;50333;47.436;21.390;2022-12-18T09:19:03;58.08;;;27.00;;
64085;SDS011;50333;47.436;21.390;2022-12-18T09:21:33;57.15;;;26.83;;
64085;SDS011;50333;47.436;21.390;2022-12-18T09:24:04;55.25;;;25.20;;
64085;SDS011;50333;47.436;21.390;2022-12-18T09:26:35;54.25;;;25.92;;
64085;SDS011;50333;47.436;21.390;2022-12-18T09:29:04;60.63;;;27.42;;
64085;SDS011;50333;47.436;21.390;2022-12-18T09:31:31;58.65;;;26.95;;
64085;SDS011;50333;47.436;21.390;2022-12-18T09:34:00;60.30;;;26.90;;
64085;SDS011;50333;47.436;21.390;2022-12-18T09:36:28;60.70;;;26.95;;
64085;SDS011;50333;47.436;21.390;2022-12-18T09:38:55;88.30;;;36.70;;
64085;SDS011;50333;47.436;21.390;2022-12-18T09:49:23;61.37;;;28.25;;
64085;SDS011;50333;47.436;21.390;2022-12-18T09:52:03;62.08;;;28.45;;
64085;SDS011;50333;47.436;21.390;2022-12-18T09:57:28;58.50;;;24.65;;
64085;SDS011;50333;47.436;21.390;2022-12-18T10:00:15;62.97;;;26.40;;
64085;SDS011;50333;47.436;21.390;2022-12-18T10:02:46;64.90;;;29.70;;
64085;SDS011;50333;47.436;21.390;2022-12-18T10:05:20;62.45;;;29.42;;
64085;SDS011;50333;47.436;21.390;2022-12-18T10:08:03;69.43;;;29.83;;
64085;SDS011;50333;47.436;21.390;2022-12-18T10:11:25;66.62;;;30.23;;
64085;SDS011;50333;47.436;21.390;2022-12-18T10:14:27;63.45;;;29.52;;
64085;SDS011;50333;47.436;21.390;2022-12-18T10:19:56;61.30;;;28.58;;
64085;SDS011;50333;47.436;21.390;2022-12-18T10:27:41;64.80;;;30.05;;
64085;SDS011;50333;47.436;21.390;2022-12-18T10:30:12;68.12;;;33.20;;
64085;SDS011;50333;47.436;21.390;2022-12-18T10:32:48;65.07;;;29.08;;
64085;SDS011;50333;47.436;21.390;2022-12-18T10:35:20;68.43;;;32.67;;
64085;SDS011;50333;47.436;21.390;2022-12-18T10:38:00;73.97;;;35.95;;
64085;SDS011;50333;47.436;21.390;2022-12-18T10:40:31;69.62;;;31.33;;
64085;SDS011;50333;47.436;21.390;2022-12-18T10:43:03;68.32;;;35.67;;
64085;SDS011;50333;47.436;21.390;2022-12-18T10:45:33;96.10;;;38.83;;
64085;SDS011;50333;47.436;21.390;2022-12-18T10:48:01;71.28;;;33.65;;
64085;SDS011;50333;47.436;21.390;2022-12-18T10:50:32;70.80;;;35.47;;
64085;SDS011;50333;47.436;21.390;2022-12-18T10:53:28;81.40;;;32.42;;
64085;SDS011;50333;47.436;21.390;2022-12-18T10:56:00;70.47;;;34.97;;
64085;SDS011;50333;47.436;21.390;2022-12-18T10:58:35;69.75;;;31.52;;
64085;SDS011;50333;47.436;21.390;2022-12-18T11:03:47;67.97;;;33.33;;
64085;SDS011;50333;47.436;21.390;2022-12-18T11:06:32;64.80;;;29.65;;
64085;SDS011;50333;47.436;21.390;2022-12-18T11:09:05;66.82;;;32.83;;
64085;SDS011;50333;47.436;21.390;2022-12-18T11:11:52;55.33;;;28.35;;
64085;SDS011;50333;47.436;21.390;2022-12-18T11:14:27;59.38;;;26.83;;
64085;SDS011;50333;47.436;21.390;2022-12-18T11:16:58;65.85;;;31.77;;
64085;SDS011;50333;47.436;21.390;2022-12-18T11:19:57;56.37;;;26.23;;
64085;SDS011;50333;47.436;21.390;2022-12-18T11:22:28;54.67;;;25.52;;
64085;SDS011;50333;47.436;21.390;2022-12-18T11:24:59;59.55;;;26.40;;
64085;SDS011;50333;47.436;21.390;2022-12-18T11:27:54;63.00;;;29.95;;
64085;SDS011;50333;47.436;21.390;2022-12-18T11:35:53;57.33;;;25.62;;
64085;SDS011;50333;47.436;21.390;2022-12-18T11:44:36;51.13;;;22.62;;
64085;SDS011;50333;47.436;21.390;2022-12-18T11:50:01;44.88;;;22.92;;
64085;SDS011;50333;47.436;21.390;2022-12-18T11:52:36;53.28;;;23.95;;
64085;SDS011;50333;47.436;21.390;2022-12-18T11:55:16;52.58;;;24.25;;
64085;SDS011;50333;47.436;21.390;2022-12-18T11:58:07;59.35;;;23.83;;
64085;SDS011;50333;47.436;21.390;2022-12-18T12:01:07;67.30;;;28.98;;
64085;SDS011;50333;47.436;21.390;2022-12-18T12:14:38;59.83;;;26.83;;
64085;SDS011;50333;47.436;21.390;2022-12-18T12:17:45;54.50;;;25.92;;
64085;SDS011;50333;47.436;21.390;2022-12-18T12:22:56;62.43;;;30.10;;
64085;SDS011;50333;47.436;21.390;2022-12-18T12:28:41;75.20;;;30.15;;
64085;SDS011;50333;47.436;21.390;2022-12-18T12:39:18;74.15;;;34.50;;
64085;SDS011;50333;47.436;21.390;2022-12-18T12:41:50;70.05;;;34.67;;
64085;SDS011;50333;47.436;21.390;2022-12-18T12:44:39;68.28;;;32.97;;
64085;SDS011;50333;47.436;21.390;2022-12-18T12:49:56;65.12;;;31.60;;
64085;SDS011;50333;47.436;21.390;2022-12-18T12:52:31;70.53;;;30.37;;
64085;SDS011;50333;47.436;21.390;2022-12-18T12:55:03;70.37;;;33.88;;
64085;SDS011;50333;47.436;21.390;2022-12-18T12:57:41;79.10;;;36.55;;
64085;SDS011;50333;47.436;21.390;2022-12-18T13:00:16;69.07;;;32.15;;
64085;SDS011;50333;47.436;21.390;2022-12-18T13:02:50;69.03;;;33.20;;
64085;SDS011;50333;47.436;21.390;2022-12-18T13:08:06;60.50;;;28.17;;
64085;SDS011;50333;47.436;21.390;2022-12-18T13:10:37;61.63;;;28.20;;
64085;SDS011;50333;47.436;21.390;2022-12-18T13:13:09;70.65;;;32.88;;
64085;SDS011;50333;47.436;21.390;2022-12-18T13:16:03;62.60;;;28.87;;
64085;SDS011;50333;47.436;21.390;2022-12-18T13:18:33;65.50;;;28.35;;
64085;SDS011;50333;47.436;21.390;2022-12-18T13:21:05;71.30;;;33.45;;
64085;SDS011;50333;47.436;21.390;2022-12-18T13:23:45;63.78;;;29.67;;
64085;SDS011;50333;47.436;21.390;2022-12-18T13:28:53;57.70;;;27.60;;
64085;SDS011;50333;47.436;21.390;2022-12-18T13:36:56;60.08;;;26.55;;
64085;SDS011;50333;47.436;21.390;2022-12-18T13:45:01;60.53;;;29.10;;
64085;SDS011;50333;47.436;21.390;2022-12-18T13:47:33;56.00;;;26.05;;
64085;SDS011;50333;47.436;21.390;2022-12-18T13:53:02;59.90;;;30.17;;
64085;SDS011;50333;47.436;21.390;2022-12-18T13:55:32;58.45;;;26.42;;
64085;SDS011;50333;47.436;21.390;2022-12-18T13:58:06;64.60;;;29.95;;
64085;SDS011;50333;47.436;21.390;2022-12-18T14:00:34;68.25;;;32.22;;
64085;SDS011;50333;47.436;21.390;2022-12-18T14:03:15;61.28;;;30.85;;
64085;SDS011;50333;47.436;21.390;2022-12-18T14:05:52;60.15;;;28.80;;
64085;SDS011;50333;47.436;21.390;2022-12-18T14:08:27;63.00;;;29.85;;
64085;SDS011;50333;47.436;21.390;2022-12-18T14:11:00;59.47;;;28.48;;
64085;SDS011;50333;47.436;21.390;2022-12-18T14:13:41;77.30;;;37.08;;
64085;SDS011;50333;47.436;21.390;2022-12-18T14:16:11;67.20;;;32.40;;
64085;SDS011;50333;47.436;21.390;2022-12-18T14:18:46;66.87;;;32.20;;
64085;SDS011;50333;47.436;21.390;2022-12-18T14:24:25;58.58;;;27.50;;
64085;SDS011;50333;47.436;21.390;2022-12-18T14:26:47;62.30;;;31.12;;
64085;SDS011;50333;47.436;21.390;2022-12-18T14:29:24;63.08;;;29.35;;
64085;SDS011;50333;47.436;21.390;2022-12-18T14:34:44;63.47;;;31.23;;
64085;SDS011;50333;47.436;21.390;2022-12-18T14:37:35;79.40;;;37.63;;
64085;SDS011;50333;47.436;21.390;2022-12-18T14:40:11;91.25;;;44.50;;
64085;SDS011;50333;47.436;21.390;2022-12-18T14:42:40;74.37;;;37.00;;
64085;SDS011;50333;47.436;21.390;2022-12-18T14:50:54;65.43;;;33.55;;
64085;SDS011;50333;47.436;21.390;2022-12-18T14:53:40;67.10;;;32.95;;
64085;SDS011;50333;47.436;21.390;2022-12-18T14:58:52;66.07;;;35.15;;
64085;SDS011;50333;47.436;21.390;2022-12-18T15:03:59;59.00;;;28.95;;
64085;SDS011;50333;47.436;21.390;2022-12-18T15:06:36;63.33;;;31.73;;
64085;SDS011;50333;47.436;21.390;2022-12-18T15:09:22;55.60;;;26.35;;
64085;SDS011;50333;47.436;21.390;2022-12-18T15:11:56;56.72;;;27.10;;
64085;SDS011;50333;47.436;21.390;2022-12-18T15:19:32;55.97;;;23.20;;
64085;SDS011;50333;47.436;21.390;2022-12-18T15:22:11;44.97;;;24.55;;
64085;SDS011;50333;47.436;21.390;2022-12-18T15:24:44;63.33;;;30.95;;
64085;SDS011;50333;47.436;21.390;2022-12-18T15:27:29;67.68;;;32.03;;
64085;SDS011;50333;47.436;21.390;2022-12-18T15:32:37;64.85;;;31.20;;
64085;SDS011;50333;47.436;21.390;2022-12-18T15:37:46;61.80;;;29.98;;
64085;SDS011;50333;47.436;21.390;2022-12-18T15:40:16;57.67;;;28.40;;
64085;SDS011;50333;47.436;21.390;2022-12-18T15:45:33;43.92;;;24.17;;
64085;SDS011;50333;47.436;21.390;2022-12-18T15:48:12;51.92;;;25.58;;
64085;SDS011;50333;47.436;21.390;2022-12-18T15:50:47;51.42;;;25.88;;
64085;SDS011;50333;47.436;21.390;2022-12-18T15:53:17;54.47;;;26.67;;
64085;SDS011;50333;47.436;21.390;2022-12-18T15:55:46;57.38;;;28.70;;
64085;SDS011;50333;47.436;21.390;2022-12-18T15:58:33;56.45;;;27.42;;
64085;SDS011;50333;47.436;21.390;2022-12-18T16:01:01;52.03;;;23.75;;
64085;SDS011;50333;47.436;21.390;2022-12-18T16:03:30;48.08;;;26.08;;
64085;SDS011;50333;47.436;21.390;2022-12-18T16:05:58;50.00;;;24.48;;
64085;SDS011;50333;47.436;21.390;2022-12-18T16:08:28;47.88;;;23.87;;
64085;SDS011;50333;47.436;21.390;2022-12-18T16:10:57;68.65;;;31.67;;
64085;SDS011;50333;47.436;21.390;2022-12-18T16:13:25;75.60;;;37.80;;
64085;SDS011;50333;47.436;21.390;2022-12-18T16:15:53;76.15;;;38.42;;
64085;SDS011;50333;47.436;21.390;2022-12-18T16:18:21;67.72;;;33.33;;
64085;SDS011;50333;47.436;21.390;2022-12-18T16:20:49;75.10;;;34.92;;
64085;SDS011;50333;47.436;21.390;2022-12-18T16:23:17;60.47;;;31.17;;
64085;SDS011;50333;47.436;21.390;2022-12-18T16:25:45;55.78;;;30.27;;
64085;SDS011;50333;47.436;21.390;2022-12-18T16:28:15;59.50;;;30.20;;
64085;SDS011;50333;47.436;21.390;2022-12-18T16:30:42;73.45;;;38.85;;
64085;SDS011;50333;47.436;21.390;2022-12-18T16:33:11;63.92;;;32.80;;
64085;SDS011;50333;47.436;21.390;2022-12-18T16:35:38;78.68;;;37.85;;
64085;SDS011;50333;47.436;21.390;2022-12-18T16:38:07;71.65;;;38.97;;
64085;SDS011;50333;47.436;21.390;2022-12-18T16:40:35;57.60;;;31.33;;
64085;SDS011;50333;47.436;21.390;2022-12-18T16:43:25;58.28;;;32.03;;
64085;SDS011;50333;47.436;21.390;2022-12-18T16:45:53;57.28;;;27.48;;
64085;SDS011;50333;47.436;21.390;2022-12-18T16:48:24;57.20;;;29.65;;
64085;SDS011;50333;47.436;21.390;2022-12-18T16:50:59;59.28;;;30.27;;
64085;SDS011;50333;47.436;21.390;2022-12-18T16:53:31;65.43;;;29.55;;
64085;SDS011;50333;47.436;21.390;2022-12-18T16:56:01;54.20;;;28.30;;
64085;SDS011;50333;47.436;21.390;2022-12-18T16:58:31;70.60;;;33.97;;
64085;SDS011;50333;47.436;21.390;2022-12-18T17:00:59;55.45;;;28.45;;
64085;SDS011;50333;47.436;21.390;2022-12-18T17:03:27;62.60;;;29.92;;
64085;SDS011;50333;47.436;21.390;2022-12-18T17:05:55;64.07;;;32.72;;
64085;SDS011;50333;47.436;21.390;2022-12-18T17:08:30;72.12;;;32.92;;
64085;SDS011;50333;47.436;21.390;2022-12-18T17:11:05;58.28;;;32.20;;
64085;SDS011;50333;47.436;21.390;2022-12-18T17:13:34;65.00;;;33.67;;
64085;SDS011;50333;47.436;21.390;2022-12-18T17:16:02;68.05;;;34.85;;